sensor_id;sensor_type;location;lat;lon;timestamp;pressure;altitude;pressure_sealevel;temperature;humidity
18264;BME280;9258;48.668;9.172;2022-07-17T00:02:59;97384.09;;;18.71;57.79
18264;BME280;9258;48.668;9.172;2022-07-17T00:06:01;97377.22;;;18.70;56.65
18264;BME280;9258;48.668;9.172;2022-07-17T00:09:03;97372.41;;;18.67;56.45
18264;BME280;9258;48.668;9.172;2022-07-17T00:12:05;97371.59;;;18.61;58.09
18264;BME280;9258;48.668;9.172;2022-07-17T00:15:09;97378.97;;;18.54;58.62
18264;BME280;9258;48.668;9.172;2022-07-17T00:18:10;97381.81;;;18.43;59.58
18264;BME280;9258;48.668;9.172;2022-07-17T00:21:12;97379.13;;;18.38;60.02
18264;BME280;9258;48.668;9.172;2022-07-17T00:24:13;97371.22;;;18.43;59.37
18264;BME280;9258;48.668;9.172;2022-07-17T00:27:20;97365.41;;;18.46;60.68
18264;BME280;9258;48.668;9.172;2022-07-17T00:30:22;97374.97;;;18.47;59.74
18264;BME280;9258;48.668;9.172;2022-07-17T00:33:24;97372.03;;;18.43;58.70
18264;BME280;9258;48.668;9.172;2022-07-17T00:36:25;97371.19;;;18.38;59.38
18264;BME280;9258;48.668;9.172;2022-07-17T00:39:27;97378.31;;;18.32;59.28
18264;BME280;9258;48.668;9.172;2022-07-17T00:42:28;97368.19;;;18.24;60.31
18264;BME280;9258;48.668;9.172;2022-07-17T00:45:31;97372.19;;;18.21;61.20
18264;BME280;9258;48.668;9.172;2022-07-17T00:48:33;97365.03;;;18.22;59.21
18264;BME280;9258;48.668;9.172;2022-07-17T00:51:35;97368.47;;;18.22;59.41
18264;BME280;9258;48.668;9.172;2022-07-17T00:54:39;97367.94;;;18.20;59.60
18264;BME280;9258;48.668;9.172;2022-07-17T00:57:42;97370.25;;;18.12;61.41
18264;BME280;9258;48.668;9.172;2022-07-17T01:00:47;97366.00;;;18.06;61.09
18264;BME280;9258;48.668;9.172;2022-07-17T01:03:49;97376.28;;;18.02;60.61
18264;BME280;9258;48.668;9.172;2022-07-17T01:06:50;97374.16;;;17.99;62.00
18264;BME280;9258;48.668;9.172;2022-07-17T01:09:52;97366.72;;;17.96;62.02
18264;BME280;9258;48.668;9.172;2022-07-17T01:12:53;97366.50;;;18.03;62.76
18264;BME280;9258;48.668;9.172;2022-07-17T01:15:57;97366.72;;;17.96;61.65
18264;BME280;9258;48.668;9.172;2022-07-17T01:18:58;97370.94;;;17.92;61.98
18264;BME280;9258;48.668;9.172;2022-07-17T01:22:01;97365.34;;;17.88;61.34
18264;BME280;9258;48.668;9.172;2022-07-17T01:25:04;97364.28;;;17.89;62.22
18264;BME280;9258;48.668;9.172;2022-07-17T01:28:05;97369.03;;;17.87;62.31
18264;BME280;9258;48.668;9.172;2022-07-17T01:31:07;97368.25;;;17.87;62.90
18264;BME280;9258;48.668;9.172;2022-07-17T01:34:10;97362.19;;;17.86;63.26
18264;BME280;9258;48.668;9.172;2022-07-17T01:37:45;97358.44;;;17.87;64.12
18264;BME280;9258;48.668;9.172;2022-07-17T01:40:47;97365.06;;;17.85;62.00
18264;BME280;9258;48.668;9.172;2022-07-17T01:43:49;97366.38;;;17.82;62.63
18264;BME280;9258;48.668;9.172;2022-07-17T01:46:50;97363.97;;;17.81;62.25
18264;BME280;9258;48.668;9.172;2022-07-17T01:49:54;97360.78;;;17.79;63.36
18264;BME280;9258;48.668;9.172;2022-07-17T01:52:56;97369.22;;;17.76;62.40
18264;BME280;9258;48.668;9.172;2022-07-17T01:55:58;97370.56;;;17.73;63.37
18264;BME280;9258;48.668;9.172;2022-07-17T01:58:59;97376.09;;;17.72;63.30
18264;BME280;9258;48.668;9.172;2022-07-17T02:02:01;97371.28;;;17.69;63.15
18264;BME280;9258;48.668;9.172;2022-07-17T02:05:05;97366.81;;;17.69;62.38
18264;BME280;9258;48.668;9.172;2022-07-17T02:08:09;97371.78;;;17.66;62.49
18264;BME280;9258;48.668;9.172;2022-07-17T02:11:10;97369.66;;;17.62;62.25
18264;BME280;9258;48.668;9.172;2022-07-17T02:14:12;97371.25;;;17.63;62.54
18264;BME280;9258;48.668;9.172;2022-07-17T02:17:14;97366.19;;;17.62;62.90
18264;BME280;9258;48.668;9.172;2022-07-17T02:20:15;97372.47;;;17.56;63.70
18264;BME280;9258;48.668;9.172;2022-07-17T02:23:18;97366.41;;;17.55;66.19
18264;BME280;9258;48.668;9.172;2022-07-17T02:26:19;97362.41;;;17.53;66.75
18264;BME280;9258;48.668;9.172;2022-07-17T02:29:21;97364.53;;;17.51;66.72
18264;BME280;9258;48.668;9.172;2022-07-17T02:32:22;97362.88;;;17.45;67.62
18264;BME280;9258;48.668;9.172;2022-07-17T02:35:24;97361.53;;;17.42;67.70
18264;BME280;9258;48.668;9.172;2022-07-17T02:38:27;97369.69;;;17.36;67.78
18264;BME280;9258;48.668;9.172;2022-07-17T02:41:28;97370.97;;;17.33;66.71
18264;BME280;9258;48.668;9.172;2022-07-17T02:44:30;97366.34;;;17.18;69.17
18264;BME280;9258;48.668;9.172;2022-07-17T02:47:33;97363.94;;;17.17;69.58
18264;BME280;9258;48.668;9.172;2022-07-17T02:50:35;97359.16;;;17.14;69.88
18264;BME280;9258;48.668;9.172;2022-07-17T02:53:38;97368.81;;;17.03;70.76
18264;BME280;9258;48.668;9.172;2022-07-17T02:56:39;97359.97;;;16.87;71.60
18264;BME280;9258;48.668;9.172;2022-07-17T02:59:41;97358.03;;;16.83;72.08
18264;BME280;9258;48.668;9.172;2022-07-17T03:02:43;97349.28;;;16.77;73.51
18264;BME280;9258;48.668;9.172;2022-07-17T03:05:44;97360.34;;;16.74;73.23
18264;BME280;9258;48.668;9.172;2022-07-17T03:08:47;97361.72;;;16.60;73.89
18264;BME280;9258;48.668;9.172;2022-07-17T03:11:48;97357.97;;;16.56;73.08
18264;BME280;9258;48.668;9.172;2022-07-17T03:14:50;97356.38;;;16.55;73.56
18264;BME280;9258;48.668;9.172;2022-07-17T03:17:51;97354.59;;;16.61;74.70
18264;BME280;9258;48.668;9.172;2022-07-17T03:20:53;97353.91;;;16.65;75.47
18264;BME280;9258;48.668;9.172;2022-07-17T03:23:56;97348.06;;;16.63;74.73
18264;BME280;9258;48.668;9.172;2022-07-17T03:26:57;97349.91;;;16.63;74.75
18264;BME280;9258;48.668;9.172;2022-07-17T03:29:59;97350.81;;;16.51;73.75
18264;BME280;9258;48.668;9.172;2022-07-17T03:33:01;97343.81;;;16.40;74.79
18264;BME280;9258;48.668;9.172;2022-07-17T03:36:02;97343.41;;;16.32;75.36
18264;BME280;9258;48.668;9.172;2022-07-17T03:39:05;97346.97;;;16.20;76.65
18264;BME280;9258;48.668;9.172;2022-07-17T03:42:07;97341.25;;;16.07;76.01
18264;BME280;9258;48.668;9.172;2022-07-17T03:45:09;97341.09;;;16.13;77.14
18264;BME280;9258;48.668;9.172;2022-07-17T03:48:11;97349.78;;;16.14;76.57
18264;BME280;9258;48.668;9.172;2022-07-17T03:51:12;97346.50;;;16.07;76.45
18264;BME280;9258;48.668;9.172;2022-07-17T03:54:15;97351.91;;;15.95;76.60
18264;BME280;9258;48.668;9.172;2022-07-17T03:57:16;97350.25;;;15.89;77.94
18264;BME280;9258;48.668;9.172;2022-07-17T04:00:18;97347.28;;;15.85;77.90
18264;BME280;9258;48.668;9.172;2022-07-17T04:03:20;97353.28;;;15.81;78.43
18264;BME280;9258;48.668;9.172;2022-07-17T04:06:21;97357.78;;;15.80;78.30
18264;BME280;9258;48.668;9.172;2022-07-17T04:09:24;97353.34;;;15.86;79.26
18264;BME280;9258;48.668;9.172;2022-07-17T04:12:26;97359.81;;;15.95;79.13
18264;BME280;9258;48.668;9.172;2022-07-17T04:15:28;97365.50;;;16.04;79.92
18264;BME280;9258;48.668;9.172;2022-07-17T04:18:47;97363.56;;;16.16;80.17
18264;BME280;9258;48.668;9.172;2022-07-17T04:21:49;97363.13;;;16.24;79.71
18264;BME280;9258;48.668;9.172;2022-07-17T04:24:52;97366.69;;;16.35;78.59
18264;BME280;9258;48.668;9.172;2022-07-17T04:27:53;97367.06;;;16.43;79.04
18264;BME280;9258;48.668;9.172;2022-07-17T04:30:55;97361.91;;;16.53;77.64
18264;BME280;9258;48.668;9.172;2022-07-17T04:33:56;97366.59;;;16.68;77.80
18264;BME280;9258;48.668;9.172;2022-07-17T04:36:58;97370.94;;;16.79;78.33
18264;BME280;9258;48.668;9.172;2022-07-17T04:40:00;97364.69;;;16.85;76.98
18264;BME280;9258;48.668;9.172;2022-07-17T04:43:02;97369.81;;;16.97;77.69
18264;BME280;9258;48.668;9.172;2022-07-17T04:46:04;97369.78;;;17.19;76.55
18264;BME280;9258;48.668;9.172;2022-07-17T04:49:05;97376.75;;;17.30;75.48
18264;BME280;9258;48.668;9.172;2022-07-17T04:52:07;97374.47;;;17.39;74.81
18264;BME280;9258;48.668;9.172;2022-07-17T04:55:10;97376.22;;;17.60;74.28
18264;BME280;9258;48.668;9.172;2022-07-17T04:58:11;97374.25;;;17.72;72.26
18264;BME280;9258;48.668;9.172;2022-07-17T05:01:12;97378.31;;;17.85;72.21
18264;BME280;9258;48.668;9.172;2022-07-17T05:04:14;97374.13;;;17.94;72.51
18264;BME280;9258;48.668;9.172;2022-07-17T05:07:16;97377.06;;;17.97;70.77
18264;BME280;9258;48.668;9.172;2022-07-17T05:10:18;97375.53;;;18.07;72.51
18264;BME280;9258;48.668;9.172;2022-07-17T05:13:20;97376.88;;;18.14;70.83
18264;BME280;9258;48.668;9.172;2022-07-17T05:16:21;97382.28;;;18.29;69.65
18264;BME280;9258;48.668;9.172;2022-07-17T05:19:23;97381.28;;;18.41;69.31
18264;BME280;9258;48.668;9.172;2022-07-17T05:22:24;97379.19;;;18.48;69.53
18264;BME280;9258;48.668;9.172;2022-07-17T05:25:27;97376.88;;;18.61;68.66
18264;BME280;9258;48.668;9.172;2022-07-17T05:28:29;97383.03;;;18.72;68.05
18264;BME280;9258;48.668;9.172;2022-07-17T05:31:30;97383.88;;;18.88;66.67
18264;BME280;9258;48.668;9.172;2022-07-17T05:34:32;97381.00;;;18.99;66.04
18264;BME280;9258;48.668;9.172;2022-07-17T05:37:33;97382.63;;;19.05;66.68
18264;BME280;9258;48.668;9.172;2022-07-17T05:40:37;97374.66;;;19.11;66.33
18264;BME280;9258;48.668;9.172;2022-07-17T05:43:38;97374.97;;;19.19;64.78
18264;BME280;9258;48.668;9.172;2022-07-17T05:46:40;97373.91;;;19.30;65.53
18264;BME280;9258;48.668;9.172;2022-07-17T05:49:42;97380.28;;;19.39;64.87
18264;BME280;9258;48.668;9.172;2022-07-17T05:52:43;97384.31;;;19.52;64.74
18264;BME280;9258;48.668;9.172;2022-07-17T05:55:46;97388.28;;;19.70;62.96
18264;BME280;9258;48.668;9.172;2022-07-17T05:58:47;97390.66;;;19.76;63.26
18264;BME280;9258;48.668;9.172;2022-07-17T06:01:49;97385.63;;;19.90;60.88
18264;BME280;9258;48.668;9.172;2022-07-17T06:04:50;97393.31;;;19.97;61.05
18264;BME280;9258;48.668;9.172;2022-07-17T06:07:52;97399.66;;;20.06;60.69
18264;BME280;9258;48.668;9.172;2022-07-17T06:10:54;97387.94;;;20.17;60.46
18264;BME280;9258;48.668;9.172;2022-07-17T06:13:56;97387.66;;;20.29;59.30
18264;BME280;9258;48.668;9.172;2022-07-17T06:16:57;97391.63;;;20.41;59.78
18264;BME280;9258;48.668;9.172;2022-07-17T06:19:59;97395.06;;;20.57;57.07
18264;BME280;9258;48.668;9.172;2022-07-17T06:23:01;97397.44;;;20.64;56.47
18264;BME280;9258;48.668;9.172;2022-07-17T06:26:04;97393.16;;;20.68;55.55
18264;BME280;9258;48.668;9.172;2022-07-17T06:29:05;97391.50;;;20.82;56.25
18264;BME280;9258;48.668;9.172;2022-07-17T06:32:06;97403.41;;;21.00;54.91
18264;BME280;9258;48.668;9.172;2022-07-17T06:35:09;97406.28;;;21.08;55.42
18264;BME280;9258;48.668;9.172;2022-07-17T06:38:10;97404.38;;;21.19;56.10
18264;BME280;9258;48.668;9.172;2022-07-17T06:41:13;97401.38;;;21.31;55.92
18264;BME280;9258;48.668;9.172;2022-07-17T06:44:15;97405.53;;;21.47;53.48
18264;BME280;9258;48.668;9.172;2022-07-17T06:47:16;97408.94;;;21.52;53.70
18264;BME280;9258;48.668;9.172;2022-07-17T06:50:17;97409.63;;;21.68;53.48
18264;BME280;9258;48.668;9.172;2022-07-17T06:53:19;97408.47;;;21.79;54.77
18264;BME280;9258;48.668;9.172;2022-07-17T06:56:22;97414.31;;;21.81;51.48
18264;BME280;9258;48.668;9.172;2022-07-17T06:59:23;97417.13;;;22.00;51.42
18264;BME280;9258;48.668;9.172;2022-07-17T07:02:25;97421.25;;;22.16;50.83
18264;BME280;9258;48.668;9.172;2022-07-17T07:05:27;97421.94;;;22.27;48.00
18264;BME280;9258;48.668;9.172;2022-07-17T07:08:28;97424.22;;;22.39;47.25
18264;BME280;9258;48.668;9.172;2022-07-17T07:11:31;97420.59;;;22.30;46.15
18264;BME280;9258;48.668;9.172;2022-07-17T07:14:33;97411.06;;;22.47;45.29
18264;BME280;9258;48.668;9.172;2022-07-17T07:17:35;97415.91;;;22.45;44.90
18264;BME280;9258;48.668;9.172;2022-07-17T07:20:41;97416.69;;;22.70;45.70
18264;BME280;9258;48.668;9.172;2022-07-17T07:23:43;97417.19;;;22.95;45.26
18264;BME280;9258;48.668;9.172;2022-07-17T07:26:46;97411.38;;;23.12;44.40
18264;BME280;9258;48.668;9.172;2022-07-17T07:29:48;97416.22;;;23.29;43.90
18264;BME280;9258;48.668;9.172;2022-07-17T07:32:49;97419.13;;;23.51;45.51
18264;BME280;9258;48.668;9.172;2022-07-17T07:35:51;97423.13;;;23.67;44.01
18264;BME280;9258;48.668;9.172;2022-07-17T07:38:53;97421.53;;;23.85;40.83
18264;BME280;9258;48.668;9.172;2022-07-17T07:41:56;97427.72;;;23.99;42.00
18264;BME280;9258;48.668;9.172;2022-07-17T07:44:57;97428.44;;;24.19;41.92
18264;BME280;9258;48.668;9.172;2022-07-17T07:47:59;97435.38;;;24.20;40.35
18264;BME280;9258;48.668;9.172;2022-07-17T07:51:00;97431.91;;;24.38;40.42
18264;BME280;9258;48.668;9.172;2022-07-17T07:54:02;97426.84;;;24.50;40.86
18264;BME280;9258;48.668;9.172;2022-07-17T07:57:05;97422.69;;;24.71;38.74
18264;BME280;9258;48.668;9.172;2022-07-17T08:00:08;97421.78;;;24.90;39.28
18264;BME280;9258;48.668;9.172;2022-07-17T08:03:10;97435.78;;;25.00;39.08
18264;BME280;9258;48.668;9.172;2022-07-17T08:06:12;97444.56;;;25.15;38.33
18264;BME280;9258;48.668;9.172;2022-07-17T08:09:14;97445.72;;;25.36;38.21
18264;BME280;9258;48.668;9.172;2022-07-17T08:12:17;97441.31;;;25.67;38.66
18264;BME280;9258;48.668;9.172;2022-07-17T08:15:20;97445.50;;;26.04;37.97
18264;BME280;9258;48.668;9.172;2022-07-17T08:18:22;97450.25;;;26.30;37.30
18264;BME280;9258;48.668;9.172;2022-07-17T08:21:23;97447.22;;;26.53;37.79
18264;BME280;9258;48.668;9.172;2022-07-17T08:24:25;97451.25;;;26.82;36.74
18264;BME280;9258;48.668;9.172;2022-07-17T08:27:28;97446.34;;;27.15;36.72
18264;BME280;9258;48.668;9.172;2022-07-17T08:30:35;97443.53;;;27.37;36.12
18264;BME280;9258;48.668;9.172;2022-07-17T08:33:37;97447.06;;;27.64;34.96
18264;BME280;9258;48.668;9.172;2022-07-17T08:36:38;97442.13;;;27.83;34.68
18264;BME280;9258;48.668;9.172;2022-07-17T08:39:40;97447.81;;;28.24;33.93
18264;BME280;9258;48.668;9.172;2022-07-17T08:42:43;97450.25;;;28.47;32.79
18264;BME280;9258;48.668;9.172;2022-07-17T08:45:45;97442.53;;;28.75;33.02
18264;BME280;9258;48.668;9.172;2022-07-17T08:48:49;97438.25;;;29.12;32.49
18264;BME280;9258;48.668;9.172;2022-07-17T08:51:54;97446.47;;;29.36;32.23
18264;BME280;9258;48.668;9.172;2022-07-17T08:54:55;97449.16;;;29.65;30.84
18264;BME280;9258;48.668;9.172;2022-07-17T08:57:59;97452.88;;;29.94;30.67
18264;BME280;9258;48.668;9.172;2022-07-17T09:01:02;97450.41;;;30.22;29.69
18264;BME280;9258;48.668;9.172;2022-07-17T09:04:05;97453.28;;;30.50;30.23
18264;BME280;9258;48.668;9.172;2022-07-17T09:07:07;97456.94;;;30.54;28.83
18264;BME280;9258;48.668;9.172;2022-07-17T09:10:10;97454.47;;;30.73;29.23
18264;BME280;9258;48.668;9.172;2022-07-17T09:13:16;97451.63;;;30.94;27.69
18264;BME280;9258;48.668;9.172;2022-07-17T09:16:18;97451.66;;;31.18;27.82
18264;BME280;9258;48.668;9.172;2022-07-17T09:19:30;97448.19;;;31.58;28.48
18264;BME280;9258;48.668;9.172;2022-07-17T09:22:31;97451.91;;;31.65;26.37
18264;BME280;9258;48.668;9.172;2022-07-17T09:25:38;97451.97;;;32.09;26.42
18264;BME280;9258;48.668;9.172;2022-07-17T09:28:47;97454.31;;;32.23;26.65
18264;BME280;9258;48.668;9.172;2022-07-17T09:31:51;97456.06;;;32.62;26.04
18264;BME280;9258;48.668;9.172;2022-07-17T09:34:55;97456.34;;;32.73;25.07
18264;BME280;9258;48.668;9.172;2022-07-17T09:37:57;97454.41;;;32.89;25.75
18264;BME280;9258;48.668;9.172;2022-07-17T09:41:07;97455.09;;;33.02;25.42
18264;BME280;9258;48.668;9.172;2022-07-17T09:44:13;97463.03;;;33.26;24.81
18264;BME280;9258;48.668;9.172;2022-07-17T09:47:14;97459.22;;;33.46;23.89
18264;BME280;9258;48.668;9.172;2022-07-17T09:50:18;97461.06;;;33.77;24.07
18264;BME280;9258;48.668;9.172;2022-07-17T09:53:20;97455.75;;;33.65;23.87
18264;BME280;9258;48.668;9.172;2022-07-17T09:56:24;97452.50;;;33.75;24.36
18264;BME280;9258;48.668;9.172;2022-07-17T09:59:28;97453.09;;;34.07;22.97
18264;BME280;9258;48.668;9.172;2022-07-17T10:02:33;97464.28;;;34.44;23.14
18264;BME280;9258;48.668;9.172;2022-07-17T10:05:34;97451.78;;;34.62;22.71
18264;BME280;9258;48.668;9.172;2022-07-17T10:08:37;97449.88;;;34.63;22.04
18264;BME280;9258;48.668;9.172;2022-07-17T10:11:40;97450.53;;;34.79;22.29
18264;BME280;9258;48.668;9.172;2022-07-17T10:14:46;97442.50;;;35.13;21.90
18264;BME280;9258;48.668;9.172;2022-07-17T10:17:48;97447.78;;;35.02;22.64
18264;BME280;9258;48.668;9.172;2022-07-17T10:20:51;97450.34;;;35.18;22.62
18264;BME280;9258;48.668;9.172;2022-07-17T10:24:07;97450.47;;;35.55;21.91
18264;BME280;9258;48.668;9.172;2022-07-17T10:27:17;97445.44;;;35.57;21.58
18264;BME280;9258;48.668;9.172;2022-07-17T10:30:24;97448.09;;;35.80;21.38
18264;BME280;9258;48.668;9.172;2022-07-17T10:33:26;97447.47;;;35.93;21.13
18264;BME280;9258;48.668;9.172;2022-07-17T10:36:35;97434.53;;;35.83;20.43
18264;BME280;9258;48.668;9.172;2022-07-17T10:39:37;97423.25;;;35.85;20.73
18264;BME280;9258;48.668;9.172;2022-07-17T10:42:41;97421.94;;;36.08;20.51
18264;BME280;9258;48.668;9.172;2022-07-17T10:45:45;97425.28;;;36.28;21.15
18264;BME280;9258;48.668;9.172;2022-07-17T10:48:48;97418.44;;;36.49;20.77
18264;BME280;9258;48.668;9.172;2022-07-17T10:51:50;97420.59;;;36.29;21.32
18264;BME280;9258;48.668;9.172;2022-07-17T10:54:52;97424.13;;;36.73;20.64
18264;BME280;9258;48.668;9.172;2022-07-17T10:57:54;97418.84;;;36.98;20.41
18264;BME280;9258;48.668;9.172;2022-07-17T11:01:03;97418.88;;;37.02;19.12
18264;BME280;9258;48.668;9.172;2022-07-17T11:04:05;97414.75;;;37.26;19.58
18264;BME280;9258;48.668;9.172;2022-07-17T11:07:08;97427.69;;;37.39;18.60
18264;BME280;9258;48.668;9.172;2022-07-17T11:10:13;97424.97;;;37.39;19.96
18264;BME280;9258;48.668;9.172;2022-07-17T11:13:16;97424.06;;;37.21;19.45
18264;BME280;9258;48.668;9.172;2022-07-17T11:16:27;97417.34;;;37.08;19.27
18264;BME280;9258;48.668;9.172;2022-07-17T11:19:31;97411.59;;;37.17;19.83
18264;BME280;9258;48.668;9.172;2022-07-17T11:22:33;97401.19;;;37.47;18.92
18264;BME280;9258;48.668;9.172;2022-07-17T11:25:34;97404.31;;;37.42;19.64
18264;BME280;9258;48.668;9.172;2022-07-17T11:28:37;97400.84;;;37.56;18.86
18264;BME280;9258;48.668;9.172;2022-07-17T11:31:42;97401.00;;;37.91;18.21
18264;BME280;9258;48.668;9.172;2022-07-17T11:34:44;97401.34;;;37.86;17.61
18264;BME280;9258;48.668;9.172;2022-07-17T11:37:48;97395.38;;;37.56;18.00
18264;BME280;9258;48.668;9.172;2022-07-17T11:40:50;97404.34;;;37.60;18.10
18264;BME280;9258;48.668;9.172;2022-07-17T11:43:51;97395.88;;;37.82;17.61
18264;BME280;9258;48.668;9.172;2022-07-17T11:46:54;97407.56;;;37.72;18.27
18264;BME280;9258;48.668;9.172;2022-07-17T11:50:04;97402.72;;;37.44;18.33
18264;BME280;9258;48.668;9.172;2022-07-17T11:53:06;97402.38;;;37.49;18.72
18264;BME280;9258;48.668;9.172;2022-07-17T11:56:08;97404.44;;;37.81;18.70
18264;BME280;9258;48.668;9.172;2022-07-17T11:59:24;97395.53;;;37.91;18.61
18264;BME280;9258;48.668;9.172;2022-07-17T12:02:30;97403.28;;;37.78;17.88
18264;BME280;9258;48.668;9.172;2022-07-17T12:05:35;97401.72;;;37.77;17.69
18264;BME280;9258;48.668;9.172;2022-07-17T12:08:37;97401.00;;;37.91;17.48
18264;BME280;9258;48.668;9.172;2022-07-17T12:11:45;97399.28;;;37.58;17.19
18264;BME280;9258;48.668;9.172;2022-07-17T12:14:50;97386.72;;;36.70;17.71
18264;BME280;9258;48.668;9.172;2022-07-17T12:17:53;97395.06;;;36.99;18.15
18264;BME280;9258;48.668;9.172;2022-07-17T12:20:56;97395.72;;;37.40;17.98
18264;BME280;9258;48.668;9.172;2022-07-17T12:24:01;97385.53;;;37.33;18.04
18264;BME280;9258;48.668;9.172;2022-07-17T12:27:05;97384.03;;;37.43;17.76
18264;BME280;9258;48.668;9.172;2022-07-17T12:30:08;97381.63;;;37.27;17.67
18264;BME280;9258;48.668;9.172;2022-07-17T12:33:11;97392.63;;;37.48;18.04
18264;BME280;9258;48.668;9.172;2022-07-17T12:36:12;97383.34;;;37.64;17.34
18264;BME280;9258;48.668;9.172;2022-07-17T12:39:14;97379.72;;;37.45;17.48
18264;BME280;9258;48.668;9.172;2022-07-17T12:42:16;97382.19;;;37.72;16.50
18264;BME280;9258;48.668;9.172;2022-07-17T12:45:18;97380.88;;;37.44;16.77
18264;BME280;9258;48.668;9.172;2022-07-17T12:48:21;97374.09;;;37.06;17.45
18264;BME280;9258;48.668;9.172;2022-07-17T12:51:23;97380.41;;;36.19;18.36
18264;BME280;9258;48.668;9.172;2022-07-17T12:54:24;97368.38;;;35.53;18.70
18264;BME280;9258;48.668;9.172;2022-07-17T12:57:26;97366.47;;;34.71;19.56
18264;BME280;9258;48.668;9.172;2022-07-17T13:00:28;97370.22;;;35.15;19.23
18264;BME280;9258;48.668;9.172;2022-07-17T13:03:31;97371.22;;;35.00;19.69
18264;BME280;9258;48.668;9.172;2022-07-17T13:06:33;97371.84;;;34.67;20.27
18264;BME280;9258;48.668;9.172;2022-07-17T13:09:34;97375.47;;;34.48;20.22
18264;BME280;9258;48.668;9.172;2022-07-17T13:12:36;97376.19;;;34.45;20.96
18264;BME280;9258;48.668;9.172;2022-07-17T13:15:38;97376.09;;;34.38;19.98
18264;BME280;9258;48.668;9.172;2022-07-17T13:18:41;97370.47;;;34.27;20.26
18264;BME280;9258;48.668;9.172;2022-07-17T13:21:42;97364.19;;;33.81;19.63
18264;BME280;9258;48.668;9.172;2022-07-17T13:24:44;97359.66;;;33.70;20.74
18264;BME280;9258;48.668;9.172;2022-07-17T13:27:45;97359.47;;;33.20;20.25
18264;BME280;9258;48.668;9.172;2022-07-17T13:30:47;97357.72;;;32.93;20.97
18264;BME280;9258;48.668;9.172;2022-07-17T13:33:50;97346.31;;;32.37;20.78
18264;BME280;9258;48.668;9.172;2022-07-17T13:36:51;97354.28;;;32.45;21.53
18264;BME280;9258;48.668;9.172;2022-07-17T13:39:53;97343.00;;;32.28;23.38
18264;BME280;9258;48.668;9.172;2022-07-17T13:42:55;97345.00;;;32.46;23.26
18264;BME280;9258;48.668;9.172;2022-07-17T13:45:56;97346.66;;;32.51;22.47
18264;BME280;9258;48.668;9.172;2022-07-17T13:48:59;97338.34;;;32.60;22.24
18264;BME280;9258;48.668;9.172;2022-07-17T13:52:01;97345.25;;;32.73;22.11
18264;BME280;9258;48.668;9.172;2022-07-17T13:55:03;97342.91;;;32.71;21.97
18264;BME280;9258;48.668;9.172;2022-07-17T13:58:04;97345.75;;;32.63;23.00
18264;BME280;9258;48.668;9.172;2022-07-17T14:01:07;97339.59;;;32.46;22.58
18264;BME280;9258;48.668;9.172;2022-07-17T14:04:10;97335.94;;;32.23;23.19
18264;BME280;9258;48.668;9.172;2022-07-17T14:07:11;97324.63;;;31.90;22.29
18264;BME280;9258;48.668;9.172;2022-07-17T14:10:13;97336.50;;;32.01;22.49
18264;BME280;9258;48.668;9.172;2022-07-17T14:13:14;97327.53;;;31.97;23.76
18264;BME280;9258;48.668;9.172;2022-07-17T14:16:16;97326.84;;;32.00;24.21
18264;BME280;9258;48.668;9.172;2022-07-17T14:19:20;97319.56;;;32.04;22.56
18264;BME280;9258;48.668;9.172;2022-07-17T14:22:21;97315.13;;;31.96;23.21
18264;BME280;9258;48.668;9.172;2022-07-17T14:25:23;97316.34;;;31.82;22.51
18264;BME280;9258;48.668;9.172;2022-07-17T14:28:25;97317.03;;;31.52;22.96
18264;BME280;9258;48.668;9.172;2022-07-17T14:31:28;97325.13;;;31.64;23.21
18264;BME280;9258;48.668;9.172;2022-07-17T14:34:31;97317.81;;;31.52;22.73
18264;BME280;9258;48.668;9.172;2022-07-17T14:37:33;97318.34;;;31.58;22.06
18264;BME280;9258;48.668;9.172;2022-07-17T14:40:34;97313.59;;;31.39;22.13
18264;BME280;9258;48.668;9.172;2022-07-17T14:43:36;97320.44;;;31.08;23.33
18264;BME280;9258;48.668;9.172;2022-07-17T14:46:38;97323.47;;;31.07;23.04
18264;BME280;9258;48.668;9.172;2022-07-17T14:49:41;97318.16;;;31.23;22.60
18264;BME280;9258;48.668;9.172;2022-07-17T14:52:43;97320.25;;;31.13;21.63
18264;BME280;9258;48.668;9.172;2022-07-17T14:55:45;97311.81;;;30.91;21.58
18264;BME280;9258;48.668;9.172;2022-07-17T14:58:46;97317.16;;;30.63;22.09
18264;BME280;9258;48.668;9.172;2022-07-17T15:01:48;97317.81;;;30.72;21.81
18264;BME280;9258;48.668;9.172;2022-07-17T15:04:51;97311.28;;;30.73;23.06
18264;BME280;9258;48.668;9.172;2022-07-17T15:07:52;97315.00;;;30.68;23.31
18264;BME280;9258;48.668;9.172;2022-07-17T15:10:54;97311.97;;;30.70;22.86
18264;BME280;9258;48.668;9.172;2022-07-17T15:13:55;97303.38;;;30.80;23.03
18264;BME280;9258;48.668;9.172;2022-07-17T15:16:57;97310.63;;;30.52;22.00
18264;BME280;9258;48.668;9.172;2022-07-17T15:20:02;97311.50;;;30.43;22.16
18264;BME280;9258;48.668;9.172;2022-07-17T15:23:03;97315.25;;;30.39;22.07
18264;BME280;9258;48.668;9.172;2022-07-17T15:26:05;97301.16;;;30.45;22.05
18264;BME280;9258;48.668;9.172;2022-07-17T15:29:06;97307.47;;;30.37;21.63
18264;BME280;9258;48.668;9.172;2022-07-17T15:32:08;97304.31;;;30.35;21.34
18264;BME280;9258;48.668;9.172;2022-07-17T15:35:11;97308.47;;;30.21;22.07
18264;BME280;9258;48.668;9.172;2022-07-17T15:38:13;97293.53;;;30.23;22.55
18264;BME280;9258;48.668;9.172;2022-07-17T15:41:14;97300.69;;;30.07;22.38
18264;BME280;9258;48.668;9.172;2022-07-17T15:44:16;97295.88;;;30.00;23.07
18264;BME280;9258;48.668;9.172;2022-07-17T15:47:18;97287.91;;;30.04;22.01
18264;BME280;9258;48.668;9.172;2022-07-17T15:50:21;97297.66;;;30.08;22.53
18264;BME280;9258;48.668;9.172;2022-07-17T15:53:22;97298.31;;;29.93;23.25
18264;BME280;9258;48.668;9.172;2022-07-17T15:56:24;97289.03;;;30.03;22.38
18264;BME280;9258;48.668;9.172;2022-07-17T15:59:27;97294.50;;;29.94;22.89
18264;BME280;9258;48.668;9.172;2022-07-17T16:02:28;97291.66;;;29.79;22.76
18264;BME280;9258;48.668;9.172;2022-07-17T16:05:31;97287.38;;;29.78;22.95
18264;BME280;9258;48.668;9.172;2022-07-17T16:08:32;97290.09;;;29.90;22.10
18264;BME280;9258;48.668;9.172;2022-07-17T16:11:34;97282.78;;;29.78;23.36
18264;BME280;9258;48.668;9.172;2022-07-17T16:14:35;97280.88;;;29.79;22.72
18264;BME280;9258;48.668;9.172;2022-07-17T16:17:37;97279.72;;;29.67;21.64
18264;BME280;9258;48.668;9.172;2022-07-17T16:20:40;97271.84;;;29.62;22.23